• Join FlightAware (Why Join?)
  • Login
  • US Flag 
04:49AM EDT


 

Airport Tracker/Info


-or-


 

Live Flight TrackerFlight Track Log ✈ N682RW ✈ 17-Jun-2013 ✈ KGRR - KSYR

Flight Track Log - Related Links

Times and Time Zones

All times are in EDT time to prevent confusion due to time zone crossing. See the N682RW flight status page for this flight to view local times or setup timezone preferences in your user account.

Time Position Orientation Groundspeed Altitude Reporting Facility
EDT Latitude Longitude Course Direction KTS MPH feet Rate Location/Type
10:01AM 42.8886 -85.5656 20° North 193 222 2,800  Level Chicago Center
10:02AM 42.9442 -85.5386 20° North 242 278 5,300 2,700 Climbing Chicago Center
10:03AM 42.9375 -85.4294 95° East 299 344 8,500 2,220 Climbing Chicago Center
10:04AM 42.9417 -85.3033 87° East 338 389 10,000 1,980 Climbing Chicago Center
10:05AM 42.9469 -85.1383 87° East 363 418 12,600 2,580 Climbing Chicago Center
10:06AM 42.9494 -84.9928 89° East 379 436 15,400 2,700 Climbing Chicago Center
10:07AM 42.9522 -84.8406 89° East 399 459 18,200 2,340 Climbing Chicago Center
10:08AM 42.9561 -84.6781 88° East 422 486 20,300 1,980 Climbing Chicago Center
10:09AM 42.9592 -84.5092 89° East 439 505 22,400 2,100 Climbing Chicago Center
10:10AM 42.9625 -84.2956 89° East 464 534 24,700 1,980 Climbing Chicago Center
10:11AM 42.9647 -84.1136 89° East 476 548 26,500 1,620 Climbing Chicago Center
10:12AM 42.9664 -83.9267 89° East 489 563 28,100 1,620 Climbing Chicago Center
10:13AM 42.9692 -83.7347 89° East 503 579 29,900 1,980 Climbing Chicago Center
10:13AM 42.9667 -83.6500 92° East 510 587 30,700 840 Climbing Toronto Center
10:14AM 42.9667 -83.4667 90° East 510 587 31,000 120 Climbing Toronto Center
10:15AM 42.9803 -83.3106 83° East 506 582 31,000  Level Cleveland Center
10:16AM 42.9889 -83.1178 86° East 511 588 31,100 360 Climbing Cleveland Center
10:17AM 42.9950 -82.9164 88° East 516 594 31,800 660 Climbing Cleveland Center
10:18AM 43.0011 -82.7181 88° East 516 594 32,500 600 Climbing Cleveland Center
10:19AM 43.0067 -82.5222 88° East 516 594 33,000 240 Climbing Cleveland Center
10:20AM 43.0097 -82.3208 89° East 516 594 33,000  Level Cleveland Center
10:21AM 43.0000 -82.0667 93° East 530 610 33,000 -240 Level Toronto Center
10:22AM 43.0167 -81.8667 83° East 530 610 32,600 -660 Descending Toronto Center
10:23AM 43.0167 -81.6667 90° East 530 610 31,700 -840 Descending Toronto Center
10:24AM 43.0167 -81.4833 90° East 520 598 31,000 -360 Descending Toronto Center
10:25AM 43.0167 -81.2500 90° East 520 598 31,000  Level Toronto Center
10:26AM 43.0167 -81.0667 90° East 520 598 31,000  Level Toronto Center
10:27AM 43.0167 -80.8833 90° East 530 610 31,000  Level Toronto Center
10:28AM 43.0167 -80.6833 90° East 530 610 31,000 -120 Level Toronto Center
10:29AM 43.0000 -80.4833 96° East 530 610 30,800 -900 Descending Toronto Center
10:30AM 43.0000 -80.2667 90° East 530 610 29,300 -900 Descending Toronto Center
10:31AM 42.9833 -80.0667 96° East 530 610 29,000 -180 Descending Toronto Center
10:32AM 42.9833 -79.8833 90° East 530 610 29,000  Level Toronto Center
10:33AM 42.9667 -79.6500 95° East 530 610 29,000  Level Toronto Center
10:34AM 42.9667 -79.4667 90° East 530 610 29,000  Level Toronto Center
10:35AM 42.9500 -79.2667 96° East 530 610 29,000  Level Toronto Center
10:36AM 42.9500 -79.0667 90° East 530 610 29,000  Level Toronto Center
10:37AM 42.9667 -78.8667 83° East 530 610 29,000  Level Toronto Center
10:38AM 42.9806 -78.8408 54° Northeast 534 615 29,000 -480 Level Cleveland Center
10:39AM 42.9961 -78.6417 84° East 534 615 28,400 -720 Descending Cleveland Center
10:40AM 43.0114 -78.4367 84° East 539 620 27,600 -1,080 Descending Cleveland Center
10:41AM 43.0264 -78.2431 84° East 533 613 26,300 -1,500 Descending Cleveland Center
10:42AM 43.0411 -78.0550 84° East 511 588 24,600 -1,680 Descending Cleveland Center
10:43AM 43.0519 -77.8814 85° East 482 555 23,000 -960 Descending Cleveland Center
10:44AM 43.0644 -77.7158 84° East 460 529 22,700 -900 Descending Cleveland Center
10:45AM 43.0769 -77.5447 84° East 447 514 21,300 -1,500 Descending Cleveland Center
10:46AM 43.0869 -77.3792 85° East 442 509 19,700 -1,800 Descending Cleveland Center
10:47AM 43.0969 -77.2194 85° East 436 502 17,700 -1,920 Descending Cleveland Center
10:48AM 43.1072 -77.0683 85° East 420 483 15,900 -1,980 Descending Cleveland Center
10:49AM 43.1172 -76.9225 85° East 395 455 13,800 -1,800 Descending Cleveland Center
10:50AM 43.1167 -76.6333 90° East 360 414 11,200 -1,500 Descending Toronto Center
10:51AM 43.1167 -76.5333 90° East 330 380 9,800 -1,440 Descending Toronto Center
10:52AM 43.1461 -76.4758 55° Northeast 316 364 8,900 -1,560 Descending Boston Center
10:53AM 43.1500 -76.3594 87° East 313 360 7,300 -1,560 Descending Boston Center
10:54AM 43.1581 -76.2461 84° East 300 345 5,800 -1,500 Descending Boston Center
10:55AM 43.1656 -76.1439 84° East 245 282 4,300 -1,320 Descending Boston Center
10:56AM 43.1808 -76.0594 76° East 210 242 3,200 -1,080 Descending Boston Center
10:57AM 43.1553 -76.0094 125° Southeast 168 193 2,200 -960 Descending Boston Center
10:58AM 43.1192 -76.0272 200° South 145 167 1,400 -780 Descending Boston Center
10:59AM 43.1094 -76.0781 255° West 122 140 700 -660 Descending Boston Center